الصفحة الرئيسية
METAR-TAF:

METAR-TAF

مطار :

ميندوزا, الأرجنتين

دائرة عرض: 32-50S, خط طول: 068-47W, ارتفاع: 705 متر

مراقبة الطقس الحالي

تاريخ ووقت الإصدار 1ساعة و 4 دقيقة قبل الساعة 12:00UTC
ريح 7 عقدة من الشرق
درجة الحرارة 18°درجة مئوية
الرطوبة 49%
ضغط 1017 hPa
الرؤية 10 كم أو أكثر
الغيوم لا تقل 1500 م ولا وجود لمزنة ركامية السحاب الأسود

METAR: SAME 231200Z 09007KT CAVOK 18/07 Q1017

زمن: 10:04 (13:04 UTC)

توقعات

تاريخ ووقت الإصدار 2ساعات و 4 دقيقة قبل الساعة 11:00UTC
التوقعات صالحة من23 الساعة 12 UTC إلى 24 الساعة 12 UTC
ريح 5 عقدة من الجنوب
الرؤية 10 كم أو أكثر
غيوم متفرقة على ارتفاع 4000 قدم

TAF: SAME 231100Z 2312/2412 18005KT 9999 SCT040 TX24/2320Z TN12/2410Z

أرصاد الطقس والتوقعات من أكثر من 4000 مطار (تقارير الطقس للمطار METAR والتنبؤ بالطقس بالمطارTAF).

المحطات المتاحة هي النقط الصفراء والحمراء على الخريطة.

حرك المؤشر فوق النقطة لمعرفة اسم المحطة.

ثم انقر لمعرفة أرصاد وتوقعات الطقس.

لتغيير الخارطة: اضغط على الأزرار الخضراء مع رمز الصليب الأسود للتكبير. على الزر الأخضر مع شرطة للتصغير، أو على الأسهم الخضراء للخرائط المجاورة.


METAR-TAF: